Time;durP1;ratioP1;P1;durP2;ratioP2;P2;SDS_P1;SDS_P2;PMS_P1;PMS_P2;Temp;Humidity;BMP_temperature;BMP_pressure;BME280_temperature;BME280_humidity;BME280_pressure;Samples;Min_cycle;Max_cycle;Signal;HPM_P1;HPM_P2
2023/12/02 00:00:24;;;;;;;11.02;6.55;;;-1.30;99.90;;;;;;5145811;28;20185;-46
2023/12/02 00:02:50;;;;;;;12.07;6.50;;;-1.30;99.90;;;;;;5145665;28;20031;-47
2023/12/02 00:05:16;;;;;;;11.90;7.53;;;-1.30;99.90;;;;;;5146182;28;20051;-47
2023/12/02 00:07:41;;;;;;;14.80;7.88;;;-1.30;99.90;;;;;;5144684;28;20309;-47
2023/12/02 00:10:08;;;;;;;12.80;6.32;;;-1.30;99.90;;;;;;5146268;28;20050;-47
2023/12/02 00:12:33;;;;;;;10.98;5.75;;;-1.20;99.90;;;;;;5145119;28;20049;-48
2023/12/02 00:14:59;;;;;;;11.80;6.45;;;-1.30;99.90;;;;;;5145850;28;20019;-49
2023/12/02 00:17:25;;;;;;;11.68;6.00;;;-1.30;99.90;;;;;;5146279;28;20051;-47
2023/12/02 00:19:50;;;;;;;11.15;5.82;;;-1.30;99.90;;;;;;5146131;28;20034;-47
2023/12/02 00:22:16;;;;;;;11.80;5.93;;;-1.40;99.90;;;;;;5145231;28;20080;-49
2023/12/02 00:24:42;;;;;;;12.43;6.47;;;-1.30;99.90;;;;;;5146058;28;20268;-47
2023/12/02 00:27:07;;;;;;;8.43;5.38;;;-1.30;99.90;;;;;;5146089;27;20054;-49
2023/12/02 00:29:33;;;;;;;11.85;5.97;;;-1.30;99.90;;;;;;5131529;27;20054;-46
2023/12/02 00:31:59;;;;;;;10.00;5.65;;;-1.40;99.90;;;;;;5148678;27;20236;-46
2023/12/02 00:34:24;;;;;;;10.18;5.60;;;-1.40;99.90;;;;;;5149748;27;20204;-48
2023/12/02 00:36:50;;;;;;;10.90;6.15;;;-1.50;99.90;;;;;;5149708;27;20019;-46
2023/12/02 00:39:16;;;;;;;12.60;6.38;;;-1.40;99.90;;;;;;5148809;27;20315;-49
2023/12/02 00:41:41;;;;;;;9.10;5.97;;;-1.50;99.90;;;;;;5149426;27;20116;-48
2023/12/02 00:44:07;;;;;;;10.95;5.70;;;-1.40;99.90;;;;;;5148562;27;20227;-50
2023/12/02 00:46:33;;;;;;;11.98;5.80;;;-1.40;99.90;;;;;;5149224;27;20049;-46
2023/12/02 00:48:58;;;;;;;10.93;6.03;;;-1.40;99.90;;;;;;5148450;27;20335;-47
2023/12/02 00:51:24;;;;;;;11.00;5.53;;;-1.40;99.90;;;;;;5148238;27;20027;-48
2023/12/02 00:53:50;;;;;;;11.88;5.93;;;-1.40;99.90;;;;;;5149424;27;20019;-47
2023/12/02 00:56:16;;;;;;;12.18;6.32;;;-1.40;99.90;;;;;;5149455;27;20318;-47
2023/12/02 00:58:42;;;;;;;12.55;5.95;;;-1.40;99.90;;;;;;5148536;27;20095;-47
2023/12/02 01:01:08;;;;;;;10.88;5.78;;;-1.50;99.90;;;;;;5149395;27;20031;-46
2023/12/02 01:03:34;;;;;;;10.55;5.78;;;-1.40;99.90;;;;;;5149634;27;20276;-48
2023/12/02 01:05:59;;;;;;;13.35;5.50;;;-1.40;99.90;;;;;;5149460;27;20019;-46
2023/12/02 01:08:25;;;;;;;10.48;5.95;;;-1.40;99.90;;;;;;5148933;27;20058;-45
2023/12/02 01:10:51;;;;;;;8.57;6.03;;;-1.40;99.90;;;;;;5131054;27;20052;-46
2023/12/02 01:13:16;;;;;;;12.35;5.45;;;-1.40;99.90;;;;;;5149176;27;20157;-47
2023/12/02 01:15:42;;;;;;;10.98;5.82;;;-1.40;99.90;;;;;;5148998;27;20215;-49
2023/12/02 01:18:08;;;;;;;10.48;6.22;;;-1.40;99.90;;;;;;5148876;27;20170;-48
2023/12/02 01:20:33;;;;;;;13.40;6.18;;;-1.40;99.90;;;;;;5148110;27;20061;-47
2023/12/02 01:22:59;;;;;;;10.38;5.75;;;-1.40;99.90;;;;;;5147847;27;20042;-45
2023/12/02 01:25:25;;;;;;;11.65;6.03;;;-1.40;99.90;;;;;;5148955;27;20237;-46
2023/12/02 01:27:50;;;;;;;11.93;6.57;;;-1.40;99.90;;;;;;5148930;27;20050;-49
2023/12/02 01:30:16;;;;;;;10.40;5.35;;;-1.40;99.90;;;;;;5148647;27;20230;-48
2023/12/02 01:32:42;;;;;;;10.73;5.43;;;-1.40;99.90;;;;;;5148695;27;20068;-47
2023/12/02 01:35:07;;;;;;;9.77;5.80;;;-1.30;99.90;;;;;;5148758;27;20184;-47
2023/12/02 01:37:33;;;;;;;11.43;5.07;;;-1.30;99.90;;;;;;5148265;27;20039;-48
2023/12/02 01:39:59;;;;;;;11.20;6.55;;;-1.30;99.90;;;;;;5148231;27;20177;-47
2023/12/02 01:42:24;;;;;;;11.98;5.47;;;-1.40;99.90;;;;;;5148405;27;20035;-46
2023/12/02 01:44:50;;;;;;;10.95;6.13;;;-1.40;99.90;;;;;;5147711;27;20043;-49
2023/12/02 01:47:16;;;;;;;8.88;5.65;;;-1.40;99.90;;;;;;5148521;27;20039;-45
2023/12/02 01:49:41;;;;;;;12.45;6.47;;;-1.40;99.90;;;;;;5148029;27;20030;-49
2023/12/02 01:52:08;;;;;;;9.65;6.00;;;-1.30;99.90;;;;;;5147243;27;20076;-48
2023/12/02 01:54:34;;;;;;;11.45;5.18;;;-1.30;99.90;;;;;;5147827;27;20023;-48
2023/12/02 01:56:59;;;;;;;10.18;5.40;;;-1.30;99.90;;;;;;5148255;27;20091;-48
2023/12/02 01:59:25;;;;;;;11.23;5.60;;;-1.30;99.90;;;;;;5147282;27;20293;-46
2023/12/02 02:01:51;;;;;;;10.77;5.20;;;-1.30;99.90;;;;;;5148126;27;20352;-46
2023/12/02 02:04:16;;;;;;;10.30;5.22;;;-1.30;99.90;;;;;;5146963;27;20188;-46
2023/12/02 02:06:43;;;;;;;12.05;5.63;;;-1.30;99.90;;;;;;5146887;27;20047;-47
2023/12/02 02:09:09;;;;;;;10.60;5.22;;;-1.30;99.90;;;;;;5146823;27;20027;-47
2023/12/02 02:11:35;;;;;;;11.15;5.20;;;-1.30;99.90;;;;;;5148093;27;20053;-46
2023/12/02 02:14:00;;;;;;;8.25;5.00;;;-1.30;99.90;;;;;;5148089;27;20273;-46
2023/12/02 02:16:26;;;;;;;10.18;5.13;;;-1.30;99.90;;;;;;5147794;27;20027;-46
2023/12/02 02:18:52;;;;;;;10.02;5.38;;;-1.20;99.90;;;;;;5148045;27;20091;-48
2023/12/02 02:21:20;;;;;;;8.85;5.03;;;-1.20;99.90;;;;;;5146784;27;20043;-46
2023/12/02 02:23:45;;;;;;;10.02;5.15;;;-1.20;99.90;;;;;;5147121;27;20072;-46
2023/12/02 02:26:11;;;;;;;9.02;5.20;;;-1.10;99.90;;;;;;5147245;27;20227;-46
2023/12/02 02:28:37;;;;;;;8.80;4.72;;;-1.00;99.90;;;;;;5147771;27;20039;-46
2023/12/02 02:31:03;;;;;;;7.25;5.03;;;-0.90;99.90;;;;;;5147679;27;20031;-46
2023/12/02 02:33:31;;;;;;;10.77;5.03;;;-0.90;99.90;;;;;;5147581;27;20024;-46
2023/12/02 02:35:57;;;;;;;11.35;5.10;;;-0.80;99.90;;;;;;5146645;27;20034;-46
2023/12/02 02:38:23;;;;;;;8.63;4.82;;;-0.80;99.90;;;;;;5147335;27;20034;-46
2023/12/02 02:40:49;;;;;;;8.88;4.70;;;-0.70;99.90;;;;;;5146491;27;20027;-46
2023/12/02 02:43:15;;;;;;;7.25;4.90;;;-0.60;99.90;;;;;;5147447;27;20042;-47
2023/12/02 02:45:40;;;;;;;8.63;4.75;;;-0.50;99.90;;;;;;5147064;27;20046;-47
2023/12/02 02:48:07;;;;;;;11.82;5.22;;;-0.50;99.90;;;;;;5146116;27;20368;-46
2023/12/02 02:50:33;;;;;;;9.40;4.75;;;-0.40;99.90;;;;;;5145529;27;20031;-46
2023/12/02 02:52:59;;;;;;;6.70;4.72;;;-0.40;99.90;;;;;;5147268;27;20042;-47
2023/12/02 02:55:24;;;;;;;8.63;4.75;;;-0.30;99.90;;;;;;5147150;27;20023;-46
2023/12/02 02:57:50;;;;;;;7.78;4.35;;;-0.30;99.90;;;;;;5146241;27;20023;-47
2023/12/02 03:00:16;;;;;;;10.98;4.63;;;-0.20;99.90;;;;;;5147091;27;20031;-47
2023/12/02 03:02:42;;;;;;;7.40;4.20;;;-0.20;99.90;;;;;;5147131;27;20035;-47
2023/12/02 03:05:07;;;;;;;8.10;4.50;;;-0.10;99.90;;;;;;5147194;27;20212;-46
2023/12/02 03:07:34;;;;;;;8.32;4.22;;;0.00;99.90;;;;;;5146726;27;20058;-46
2023/12/02 03:09:59;;;;;;;7.15;4.18;;;0.00;99.90;;;;;;5146737;27;20095;-47
2023/12/02 03:12:26;;;;;;;6.10;3.92;;;0.00;99.90;;;;;;5145899;27;20047;-47
2023/12/02 03:14:53;;;;;;;7.03;3.70;;;0.10;99.90;;;;;;5145965;27;20242;-47
2023/12/02 03:17:18;;;;;;;6.18;3.90;;;0.10;99.90;;;;;;5146908;27;20015;-47
2023/12/02 03:19:44;;;;;;;8.35;4.03;;;0.10;99.90;;;;;;5147023;27;20326;-47
2023/12/02 03:22:10;;;;;;;8.13;3.60;;;0.20;99.90;;;;;;5146879;27;20280;-48
2023/12/02 03:24:35;;;;;;;6.85;3.60;;;0.20;99.90;;;;;;5146753;28;20034;-47
2023/12/02 03:27:02;;;;;;;7.10;3.80;;;0.30;99.90;;;;;;5146932;28;20031;-48
2023/12/02 03:29:28;;;;;;;7.43;3.80;;;0.30;99.90;;;;;;5146181;28;20186;-48
2023/12/02 03:31:54;;;;;;;6.65;3.25;;;0.40;99.90;;;;;;5146951;28;20086;-49
2023/12/02 03:34:19;;;;;;;7.35;3.70;;;0.40;99.90;;;;;;5145830;28;20024;-49
2023/12/02 03:36:45;;;;;;;6.25;3.83;;;0.40;99.90;;;;;;5146750;28;20342;-49
2023/12/02 03:39:15;;;;;;;6.13;3.55;;;0.50;99.90;;;;;;5146796;28;20050;-48
2023/12/02 03:41:41;;;;;;;6.35;3.58;;;0.50;99.90;;;;;;5146587;28;20031;-50
2023/12/02 03:44:06;;;;;;;7.15;3.47;;;0.50;99.90;;;;;;5146792;28;20039;-51
2023/12/02 03:46:35;;;;;;;8.32;3.58;;;0.60;99.90;;;;;;5146199;28;20312;-50
2023/12/02 03:49:00;;;;;;;6.18;3.55;;;0.60;99.90;;;;;;5145507;28;20038;-47
2023/12/02 03:51:26;;;;;;;9.95;4.18;;;0.60;99.90;;;;;;5146545;28;20023;-48
2023/12/02 03:53:52;;;;;;;8.88;3.90;;;0.60;99.90;;;;;;5146538;28;20034;-49
2023/12/02 03:56:17;;;;;;;6.88;3.38;;;0.70;99.90;;;;;;5146693;28;20307;-50
2023/12/02 03:58:43;;;;;;;8.43;4.07;;;0.60;99.90;;;;;;5146557;28;20094;-49
2023/12/02 04:01:09;;;;;;;7.30;3.38;;;0.60;99.90;;;;;;5146583;27;20218;-49
2023/12/02 04:03:35;;;;;;;7.13;3.60;;;0.70;99.90;;;;;;5150478;27;20288;-49
2023/12/02 04:06:00;;;;;;;6.85;3.60;;;0.80;99.90;;;;;;5150439;27;20314;-50
2023/12/02 04:08:26;;;;;;;6.90;3.42;;;0.80;99.90;;;;;;5150114;27;20055;-50
2023/12/02 04:10:52;;;;;;;6.78;3.45;;;0.80;99.90;;;;;;5150359;27;20050;-50
2023/12/02 04:13:18;;;;;;;6.32;3.38;;;0.90;99.90;;;;;;5149259;27;20069;-48
2023/12/02 04:15:46;;;;;;;5.97;3.72;;;0.90;99.90;;;;;;5150226;27;20023;-50
2023/12/02 04:18:12;;;;;;;6.55;3.75;;;0.90;99.90;;;;;;5150078;27;20031;-46
2023/12/02 04:20:37;;;;;;;6.95;3.97;;;0.90;99.90;;;;;;5149131;27;20035;-50
2023/12/02 04:23:04;;;;;;;6.20;3.60;;;0.90;99.90;;;;;;5150324;27;20053;-49
2023/12/02 04:25:30;;;;;;;8.60;3.97;;;0.90;99.90;;;;;;5150147;27;20181;-48
2023/12/02 04:27:55;;;;;;;9.18;4.20;;;1.00;99.90;;;;;;5148804;27;20185;-49
2023/12/02 04:30:21;;;;;;;6.70;3.55;;;1.00;99.90;;;;;;5148875;27;20039;-47
2023/12/02 04:32:47;;;;;;;8.55;3.83;;;1.00;99.90;;;;;;5149736;27;20042;-46
2023/12/02 04:35:13;;;;;;;7.15;4.03;;;1.10;99.90;;;;;;5148923;27;20050;-47
2023/12/02 04:37:39;;;;;;;8.70;4.10;;;1.00;99.90;;;;;;5149542;27;20278;-45
2023/12/02 04:40:10;;;;;;;7.57;3.40;;;1.10;99.90;;;;;;5149775;27;20027;-45
2023/12/02 04:42:40;;;;;;;11.18;3.92;;;1.10;99.90;;;;;;5148917;27;20345;-46
2023/12/02 04:45:06;;;;;;;8.00;4.47;;;1.20;99.90;;;;;;5149846;27;20027;-45
2023/12/02 04:47:31;;;;;;;9.85;5.25;;;1.20;99.90;;;;;;5149756;27;20062;-46
2023/12/02 04:49:57;;;;;;;6.82;3.58;;;1.30;99.90;;;;;;5149310;27;20086;-45
2023/12/02 04:52:23;;;;;;;6.88;3.83;;;1.30;99.90;;;;;;5149474;27;20019;-46
2023/12/02 04:54:49;;;;;;;10.52;3.42;;;1.20;99.90;;;;;;5149564;27;20027;-46
2023/12/02 04:57:15;;;;;;;6.55;3.60;;;1.20;99.90;;;;;;5149480;27;20083;-46
2023/12/02 04:59:40;;;;;;;9.88;3.95;;;1.20;99.90;;;;;;5149385;27;20035;-48
2023/12/02 05:02:06;;;;;;;8.77;3.75;;;1.20;99.90;;;;;;5149353;27;20042;-51
2023/12/02 05:04:32;;;;;;;7.68;3.88;;;1.20;99.90;;;;;;5148141;27;20196;-49
2023/12/02 05:06:58;;;;;;;5.60;2.85;;;1.30;99.90;;;;;;5148988;27;20090;-49
2023/12/02 05:09:23;;;;;;;4.90;2.97;;;1.30;99.90;;;;;;5148207;27;20094;-50
2023/12/02 05:11:49;;;;;;;6.75;2.30;;;1.40;99.90;;;;;;5147996;27;20026;-50
2023/12/02 05:14:14;;;;;;;4.97;2.35;;;1.50;99.90;;;;;;5148490;27;20053;-50
2023/12/02 05:16:43;;;;;;;7.05;2.80;;;1.50;99.90;;;;;;5149277;27;20035;-49
2023/12/02 05:19:10;;;;;;;4.90;2.20;;;1.50;99.90;;;;;;5149116;27;20023;-47
2023/12/02 05:21:36;;;;;;;5.78;1.92;;;1.50;99.90;;;;;;5149064;27;20046;-47
2023/12/02 05:24:02;;;;;;;7.03;2.45;;;1.50;99.90;;;;;;5149114;27;20023;-48
2023/12/02 05:26:28;;;;;;;5.78;2.55;;;1.60;99.90;;;;;;5148808;27;20291;-47
2023/12/02 05:28:54;;;;;;;5.90;2.45;;;1.60;99.90;;;;;;5147877;27;20076;-49
2023/12/02 05:31:19;;;;;;;6.18;2.28;;;1.60;99.90;;;;;;5148855;27;20034;-50
2023/12/02 05:33:46;;;;;;;6.80;1.95;;;1.60;99.90;;;;;;5148486;27;20042;-46
2023/12/02 05:36:12;;;;;;;4.35;1.77;;;1.60;99.90;;;;;;5147834;27;20082;-49
2023/12/02 05:38:38;;;;;;;4.35;2.00;;;1.60;99.90;;;;;;5148563;27;20307;-49
2023/12/02 05:41:04;;;;;;;8.02;3.03;;;1.60;99.90;;;;;;5148708;27;20203;-47
2023/12/02 05:43:30;;;;;;;6.53;2.45;;;1.60;99.90;;;;;;5148643;27;20072;-47
2023/12/02 05:45:56;;;;;;;5.28;2.20;;;1.60;99.90;;;;;;5148468;27;20082;-46
2023/12/02 05:48:21;;;;;;;7.78;3.05;;;1.60;99.90;;;;;;5148334;27;20298;-49
2023/12/02 05:50:47;;;;;;;6.47;2.30;;;1.60;99.90;;;;;;5148447;27;20042;-49
2023/12/02 05:53:13;;;;;;;5.65;2.75;;;1.70;99.90;;;;;;5147448;27;20027;-48
2023/12/02 05:55:38;;;;;;;7.95;2.90;;;1.80;99.90;;;;;;5147956;27;20023;-47
2023/12/02 05:58:04;;;;;;;3.38;1.95;;;1.80;99.90;;;;;;5148317;27;20229;-49
2023/12/02 06:00:29;;;;;;;5.10;1.85;;;1.80;99.90;;;;;;5148154;27;20281;-47
2023/12/02 06:02:55;;;;;;;3.00;1.80;;;1.80;99.90;;;;;;5148178;27;20019;-46
2023/12/02 06:05:21;;;;;;;6.07;1.80;;;1.90;99.90;;;;;;5148204;27;20027;-47
2023/12/02 06:07:46;;;;;;;5.75;2.03;;;1.90;99.90;;;;;;5147701;27;20112;-47
2023/12/02 06:10:12;;;;;;;3.42;1.58;;;1.90;99.90;;;;;;5146962;27;20344;-46
2023/12/02 06:12:38;;;;;;;3.05;1.50;;;2.00;99.90;;;;;;5147217;27;20329;-47
2023/12/02 06:15:04;;;;;;;3.53;2.05;;;2.00;99.90;;;;;;5148018;27;20333;-46
2023/12/02 06:17:31;;;;;;;5.22;2.20;;;2.00;99.90;;;;;;5147898;27;20049;-47
2023/12/02 06:19:57;;;;;;;4.53;1.77;;;2.00;99.90;;;;;;5147658;27;20026;-48
2023/12/02 06:22:22;;;;;;;4.90;2.17;;;2.00;99.90;;;;;;5146744;27;20231;-47
2023/12/02 06:24:48;;;;;;;4.18;2.15;;;2.00;99.90;;;;;;5146664;27;20213;-48
2023/12/02 06:27:14;;;;;;;3.08;1.90;;;1.90;99.90;;;;;;5146854;27;20308;-46
2023/12/02 06:29:39;;;;;;;4.70;2.08;;;1.90;99.90;;;;;;5146354;27;20039;-46
2023/12/02 06:32:05;;;;;;;3.17;1.85;;;2.00;99.90;;;;;;5147530;27;20090;-47
2023/12/02 06:34:31;;;;;;;6.00;1.70;;;2.00;99.90;;;;;;5147469;27;20023;-47
2023/12/02 06:36:56;;;;;;;5.38;2.03;;;2.00;99.90;;;;;;5147570;27;20034;-47
2023/12/02 06:39:22;;;;;;;4.18;1.60;;;2.00;99.90;;;;;;5147393;27;20082;-47
2023/12/02 06:41:48;;;;;;;3.53;1.70;;;2.10;99.90;;;;;;5147269;27;20345;-47
2023/12/02 06:44:13;;;;;;;3.20;1.70;;;2.10;99.90;;;;;;5147222;27;20181;-47
2023/12/02 06:46:39;;;;;;;3.38;1.77;;;2.20;99.90;;;;;;5147201;27;20291;-46
2023/12/02 06:49:05;;;;;;;3.80;2.10;;;2.30;99.90;;;;;;5147268;27;20027;-48
2023/12/02 06:51:30;;;;;;;7.80;3.40;;;2.30;99.90;;;;;;5147868;27;20030;-46
2023/12/02 06:53:57;;;;;;;4.70;2.63;;;2.30;99.90;;;;;;5147273;27;20284;-47
2023/12/02 06:56:23;;;;;;;4.50;2.20;;;2.30;99.90;;;;;;5147038;27;20030;-49
2023/12/02 06:58:49;;;;;;;2.58;1.60;;;2.30;99.90;;;;;;5146674;27;20031;-47
2023/12/02 07:01:28;;;;;;;2.50;1.73;;;2.30;99.90;;;;;;5147075;27;20340;-48
2023/12/02 07:03:59;;;;;;;4.97;1.90;;;2.30;99.90;;;;;;5146315;27;20026;-46
2023/12/02 07:06:24;;;;;;;2.80;1.50;;;2.40;99.90;;;;;;5145950;27;20046;-47
2023/12/02 07:08:50;;;;;;;2.97;2.03;;;2.40;99.90;;;;;;5146793;27;20308;-49
2023/12/02 07:11:16;;;;;;;3.42;2.00;;;2.50;99.90;;;;;;5145927;27;20035;-47
2023/12/02 07:13:42;;;;;;;5.15;1.77;;;2.40;99.90;;;;;;5128637;27;20072;-48
2023/12/02 07:16:08;;;;;;;4.13;1.67;;;2.50;99.90;;;;;;5128523;28;20034;-47
2023/12/02 07:18:34;;;;;;;4.20;1.70;;;2.50;99.90;;;;;;5146730;27;20046;-47
2023/12/02 07:21:00;;;;;;;4.18;1.90;;;2.50;99.90;;;;;;5147417;27;20031;-47
2023/12/02 07:23:25;;;;;;;4.68;1.65;;;2.50;99.90;;;;;;5145939;27;20015;-45
2023/12/02 07:25:57;;;;;;;3.13;1.70;;;2.50;99.90;;;;;;5146854;27;20079;-47
2023/12/02 07:28:23;;;;;;;2.65;1.60;;;2.60;99.90;;;;;;5145310;28;20031;-50
2023/12/02 07:30:49;;;;;;;4.18;1.70;;;2.60;99.90;;;;;;5146638;28;20063;-48
2023/12/02 07:33:15;;;;;;;2.00;1.38;;;2.60;99.90;;;;;;5146710;28;20192;-47
2023/12/02 07:35:40;;;;;;;3.20;1.63;;;2.70;99.90;;;;;;5146771;28;20028;-48
2023/12/02 07:38:06;;;;;;;3.15;1.70;;;2.70;99.90;;;;;;5149262;27;20100;-49
2023/12/02 07:40:32;;;;;;;3.08;2.00;;;2.80;99.90;;;;;;5150976;27;20038;-50
2023/12/02 07:42:57;;;;;;;4.47;2.33;;;2.80;99.90;;;;;;5150682;27;20086;-49
2023/12/02 07:45:23;;;;;;;3.83;2.17;;;2.80;99.90;;;;;;5150643;27;20015;-49
2023/12/02 07:47:49;;;;;;;6.18;2.50;;;2.80;99.90;;;;;;5150389;27;20035;-49
2023/12/02 07:50:15;;;;;;;4.25;2.10;;;2.80;99.90;;;;;;5150532;27;20079;-49
2023/12/02 07:52:41;;;;;;;3.15;1.88;;;2.90;99.90;;;;;;5149541;27;20018;-50
2023/12/02 07:55:07;;;;;;;3.88;1.70;;;2.90;99.90;;;;;;5149501;27;20050;-48
2023/12/02 07:57:33;;;;;;;2.97;1.40;;;3.00;99.90;;;;;;5150577;27;20019;-49
2023/12/02 07:59:58;;;;;;;5.70;2.40;;;3.00;99.90;;;;;;5150520;27;20060;-47
2023/12/02 08:02:24;;;;;;;5.60;2.25;;;2.90;99.90;;;;;;5150211;27;20046;-47
2023/12/02 08:04:50;;;;;;;4.45;1.63;;;2.90;99.90;;;;;;5150124;27;20042;-48
2023/12/02 08:07:15;;;;;;;3.10;1.73;;;2.90;99.90;;;;;;5150014;27;20051;-48
2023/12/02 08:09:41;;;;;;;3.42;1.73;;;2.80;99.90;;;;;;5149922;27;20031;-48
2023/12/02 08:12:07;;;;;;;2.90;1.90;;;2.70;99.90;;;;;;5150152;27;20194;-48
2023/12/02 08:14:33;;;;;;;5.88;3.42;;;2.60;99.90;;;;;;5149363;27;20034;-48
2023/12/02 08:16:58;;;;;;;13.98;6.10;;;2.60;99.90;;;;;;5149738;27;20038;-51
2023/12/02 08:19:24;;;;;;;11.25;4.95;;;2.60;99.90;;;;;;5149594;27;20086;-47
2023/12/02 08:21:50;;;;;;;20.10;8.93;;;2.60;99.90;;;;;;5149495;27;20023;-48
2023/12/02 08:24:16;;;;;;;10.25;4.45;;;2.60;99.90;;;;;;5149827;27;20123;-47
2023/12/02 08:26:42;;;;;;;13.20;5.70;;;2.60;99.90;;;;;;5131827;27;20289;-48
2023/12/02 08:29:08;;;;;;;9.23;4.50;;;2.50;99.90;;;;;;5149902;27;20023;-50
2023/12/02 08:31:34;;;;;;;14.13;7.00;;;2.50;99.90;;;;;;5150368;27;20181;-49
2023/12/02 08:34:00;;;;;;;12.60;5.32;;;2.50;99.90;;;;;;5148357;27;20020;-47
2023/12/02 08:36:25;;;;;;;18.88;8.00;;;2.50;99.90;;;;;;5149539;27;20023;-49
2023/12/02 08:38:51;;;;;;;7.45;3.35;;;2.50;99.90;;;;;;5149635;27;20069;-49
2023/12/02 08:41:17;;;;;;;8.52;3.92;;;2.50;99.90;;;;;;5148561;27;20023;-47
2023/12/02 08:43:42;;;;;;;10.77;5.95;;;2.40;99.90;;;;;;5149202;27;20050;-49
2023/12/02 08:46:15;;;;;;;5.93;2.80;;;2.40;99.90;;;;;;5149295;27;20053;-49
2023/12/02 08:48:41;;;;;;;9.48;5.00;;;2.40;99.90;;;;;;5147863;27;20026;-47
2023/12/02 08:51:07;;;;;;;11.27;6.00;;;2.30;99.90;;;;;;5149101;27;20304;-47
2023/12/02 08:53:33;;;;;;;9.32;5.40;;;2.30;99.90;;;;;;5149434;27;20051;-50
2023/12/02 08:55:59;;;;;;;9.00;5.43;;;2.30;99.90;;;;;;5149334;27;20078;-47
2023/12/02 08:58:25;;;;;;;7.75;4.72;;;2.30;99.90;;;;;;5149056;27;20019;-50
2023/12/02 09:00:51;;;;;;;7.28;5.05;;;2.30;99.90;;;;;;5149173;27;20114;-49
2023/12/02 09:03:16;;;;;;;10.40;7.28;;;2.40;99.90;;;;;;5149050;27;20023;-48
2023/12/02 09:05:42;;;;;;;6.35;4.53;;;2.40;99.90;;;;;;5148651;27;20293;-49
2023/12/02 09:08:08;;;;;;;5.80;4.57;;;2.50;99.90;;;;;;5148608;27;20226;-47
2023/12/02 09:10:33;;;;;;;5.50;3.58;;;2.50;99.90;;;;;;5147824;27;20027;-49
2023/12/02 09:12:59;;;;;;;5.53;3.97;;;2.60;99.90;;;;;;5149050;27;20165;-50
2023/12/02 09:15:50;;;;;;;8.07;3.67;;;2.60;99.90;;;;;;5148826;27;20046;-50
2023/12/02 09:18:25;;;;;;;3.45;2.30;;;3.00;99.90;;;;;;5148026;27;20076;-49
2023/12/02 09:20:55;;;;;;;2.88;2.28;;;3.30;99.90;;;;;;5131467;27;20027;-48
2023/12/02 09:23:21;;;;;;;4.60;2.67;;;4.00;99.90;;;;;;5148155;27;20292;-47
2023/12/02 09:25:48;;;;;;;5.60;2.30;;;4.40;99.90;;;;;;5148593;27;20031;-49
2023/12/02 09:28:15;;;;;;;4.13;2.10;;;4.80;99.90;;;;;;5147731;27;20035;-48
2023/12/02 09:30:55;;;;;;;3.15;2.40;;;4.70;99.90;;;;;;5148606;27;20098;-49
2023/12/02 09:33:20;;;;;;;4.97;1.75;;;4.90;99.90;;;;;;5148647;27;20023;-50
2023/12/02 09:35:47;;;;;;;2.47;1.55;;;5.40;99.90;;;;;;5148501;27;20233;-50
2023/12/02 09:38:14;;;;;;;2.25;1.60;;;6.50;99.90;;;;;;5147570;27;20035;-47
2023/12/02 09:41:00;;;;;;;3.72;1.77;;;6.40;99.90;;;;;;5148131;27;20320;-46
2023/12/02 09:43:28;;;;;;;3.42;1.10;;;5.80;99.90;;;;;;5147034;27;20263;-48
2023/12/02 09:46:17;;;;;;;1.30;0.90;;;5.30;99.90;;;;;;5148099;27;20108;-47
2023/12/02 09:49:01;;;;;;;1.38;1.00;;;4.80;99.90;;;;;;5137093;27;20034;-46
2023/12/02 09:51:35;;;;;;;1.73;1.10;;;4.50;99.90;;;;;;5148266;27;20045;-46
2023/12/02 09:54:16;;;;;;;2.30;1.27;;;4.30;99.90;;;;;;5147334;27;20019;-48
2023/12/02 09:56:50;;;;;;;1.40;1.00;;;4.20;99.90;;;;;;5130306;27;20034;-44
2023/12/02 09:59:19;;;;;;;2.08;1.20;;;4.10;99.90;;;;;;5146547;27;20030;-44
2023/12/02 10:02:10;;;;;;;2.03;1.30;;;4.00;99.90;;;;;;5146482;27;20088;-45
2023/12/02 10:04:41;;;;;;;2.53;1.20;;;4.00;99.90;;;;;;5136650;27;20042;-46
2023/12/02 10:07:17;;;;;;;2.17;1.13;;;4.10;99.90;;;;;;5146353;27;20186;-45
2023/12/02 10:09:59;;;;;;;3.70;1.92;;;4.10;99.90;;;;;;5130015;27;20037;-44
2023/12/02 10:12:49;;;;;;;3.92;1.30;;;4.00;99.90;;;;;;5146618;27;20080;-45
2023/12/02 10:15:16;;;;;;;1.88;1.17;;;4.00;99.90;;;;;;5147646;27;20020;-45
2023/12/02 10:17:55;;;;;;;2.60;1.48;;;4.00;99.90;;;;;;5146272;27;20027;-46
2023/12/02 10:20:28;;;;;;;3.25;2.15;;;4.10;99.90;;;;;;5147543;27;20095;-44
2023/12/02 10:23:26;;;;;;;158.25;61.05;;;4.10;99.90;;;;;;5147610;27;20038;-45
2023/12/02 10:26:09;;;;;;;150.75;52.58;;;4.20;99.90;;;;;;5120925;27;20034;-45
2023/12/02 10:28:52;;;;;;;105.05;40.53;;;4.20;99.90;;;;;;5147156;27;20035;-47
2023/12/02 10:31:29;;;;;;;7.00;4.10;;;4.30;99.90;;;;;;5146202;27;20019;-46
2023/12/02 10:33:57;;;;;;;5.18;2.45;;;4.50;99.90;;;;;;5146137;27;20057;-45
2023/12/02 10:36:23;;;;;;;5.82;2.95;;;4.50;99.90;;;;;;5147117;27;20023;-45
2023/12/02 10:38:51;;;;;;;5.60;5.00;;;4.60;99.90;;;;;;5146043;27;20027;-45
2023/12/02 10:41:29;;;;;;;4.93;2.63;;;4.60;99.90;;;;;;5146921;27;20035;-45
2023/12/02 10:43:58;;;;;;;4.75;2.53;;;4.60;99.90;;;;;;5129897;27;20173;-46
2023/12/02 10:46:24;;;;;;;4.35;1.70;;;4.60;99.90;;;;;;5146755;27;20038;-49
2023/12/02 10:48:49;;;;;;;5.80;4.22;;;4.60;99.90;;;;;;5146821;27;20038;-47
2023/12/02 10:51:15;;;;;;;5.15;3.20;;;4.60;99.90;;;;;;5146130;27;20078;-48
2023/12/02 10:53:42;;;;;;;2.97;2.15;;;4.50;99.90;;;;;;5145645;27;20023;-47
2023/12/02 10:56:15;;;;;;;2.75;1.60;;;4.50;99.90;;;;;;5146511;27;20027;-47
2023/12/02 10:58:43;;;;;;;3.25;2.05;;;4.40;99.90;;;;;;5146681;27;20047;-50
2023/12/02 11:01:09;;;;;;;3.03;1.90;;;4.40;99.90;;;;;;5146429;27;20039;-48
2023/12/02 11:04:05;;;;;;;3.38;1.98;;;4.40;99.90;;;;;;5146748;27;20042;-47
2023/12/02 11:06:32;;;;;;;2.38;1.58;;;4.40;99.90;;;;;;5114485;27;20196;-46
2023/12/02 11:09:10;;;;;;;2.03;1.27;;;4.30;99.90;;;;;;5146617;27;20041;-49
2023/12/02 11:12:10;;;;;;;2.65;1.40;;;4.30;99.90;;;;;;5146329;27;20268;-50
2023/12/02 11:14:40;;;;;;;2.78;1.50;;;4.30;99.90;;;;;;5146050;27;20019;-49
2023/12/02 11:17:07;;;;;;;2.28;1.30;;;4.40;99.90;;;;;;5146135;27;20027;-48
2023/12/02 11:19:39;;;;;;;4.18;2.00;;;4.40;99.90;;;;;;5145532;27;20568;-46
2023/12/02 11:22:28;;;;;;;6.35;1.75;;;4.50;99.90;;;;;;5146406;27;20264;-46
2023/12/02 11:25:02;;;;;;;20.20;10.07;;;4.70;99.90;;;;;;5145845;27;20052;-46
2023/12/02 11:28:03;;;;;;;3.40;1.65;;;4.90;99.90;;;;;;5146111;27;20343;-47
2023/12/02 11:30:37;;;;;;;42.22;18.13;;;4.90;99.90;;;;;;5130299;28;20185;-48
2023/12/02 11:33:24;;;;;;;20.75;8.40;;;4.90;99.90;;;;;;5145223;28;20287;-46
2023/12/02 11:36:06;;;;;;;54.10;28.02;;;4.90;99.90;;;;;;5144689;28;20104;-48
2023/12/02 11:38:35;;;;;;;4.28;2.40;;;4.70;99.90;;;;;;5146179;28;20023;-48
2023/12/02 11:41:06;;;;;;;4.18;3.83;;;4.70;99.90;;;;;;5146000;28;20031;-47
2023/12/02 11:43:57;;;;;;;4.95;2.83;;;4.60;99.90;;;;;;5146069;28;20048;-48
2023/12/02 11:46:23;;;;;;;3.58;2.53;;;4.50;99.90;;;;;;5144883;28;20042;-49
2023/12/02 11:48:51;;;;;;;5.80;5.20;;;4.40;99.90;;;;;;5145155;28;20293;-48
2023/12/02 11:51:32;;;;;;;5.15;2.42;;;4.30;99.90;;;;;;5146139;28;20092;-49
2023/12/02 11:54:25;;;;;;;4.15;2.55;;;4.30;99.90;;;;;;5145937;28;20037;-49
2023/12/02 11:57:11;;;;;;;5.78;2.75;;;4.30;99.90;;;;;;5145858;28;20259;-48
2023/12/02 12:00:03;;;;;;;3.80;2.70;;;4.30;99.90;;;;;;5144858;28;20046;-49
2023/12/02 12:02:55;;;;;;;4.45;2.60;;;4.30;99.90;;;;;;5144591;28;20035;-46
2023/12/02 12:05:23;;;;;;;9.98;8.90;;;4.40;99.90;;;;;;5144437;28;20046;-48
2023/12/02 12:08:20;;;;;;;4.13;1.98;;;4.50;99.90;;;;;;5145488;28;20294;-48
2023/12/02 12:10:47;;;;;;;3.88;1.90;;;4.70;99.90;;;;;;5146117;28;20027;-45
2023/12/02 12:13:12;;;;;;;4.03;2.60;;;5.10;99.90;;;;;;5144769;28;20027;-45
2023/12/02 12:15:38;;;;;;;2.92;1.98;;;5.70;99.90;;;;;;5144549;28;20034;-47
2023/12/02 12:18:04;;;;;;;8.40;2.75;;;6.10;99.90;;;;;;5144246;28;20023;-47
2023/12/02 12:20:31;;;;;;;60.35;20.80;;;6.20;99.90;;;;;;5145348;28;20030;-46
2023/12/02 12:22:57;;;;;;;7.50;3.88;;;6.10;99.90;;;;;;5146836;27;20023;-50
2023/12/02 12:25:28;;;;;;;122.93;39.20;;;5.70;99.90;;;;;;5148697;27;20269;-46
2023/12/02 12:27:54;;;;;;;148.10;45.47;;;5.50;99.90;;;;;;5148108;27;20094;-49
2023/12/02 12:30:19;;;;;;;331.60;113.50;;;5.40;99.90;;;;;;5149017;27;20038;-47
2023/12/02 12:32:45;;;;;;;41.92;17.38;;;5.40;99.90;;;;;;5149307;27;20071;-46
2023/12/02 12:35:12;;;;;;;11.27;6.68;;;5.50;99.90;;;;;;5148774;27;20031;-45
2023/12/02 12:37:40;;;;;;;5.47;3.42;;;5.30;99.90;;;;;;5149295;27;20015;-48
2023/12/02 12:40:09;;;;;;;6.00;3.58;;;5.20;99.90;;;;;;5148161;27;20027;-48
2023/12/02 12:42:34;;;;;;;5.13;2.35;;;5.10;99.90;;;;;;5147988;27;20042;-49
2023/12/02 12:45:00;;;;;;;5.40;3.30;;;4.90;99.90;;;;;;5149153;27;20082;-48
2023/12/02 12:47:30;;;;;;;10.35;7.05;;;4.90;99.90;;;;;;5149355;27;20056;-47
2023/12/02 12:49:56;;;;;;;4.72;2.30;;;4.80;99.90;;;;;;5148480;27;20031;-48
2023/12/02 12:52:21;;;;;;;4.18;1.67;;;4.80;99.90;;;;;;5131228;27;20037;-49
2023/12/02 12:54:51;;;;;;;2.28;1.65;;;4.70;99.90;;;;;;5113996;27;20086;-46